Time;durP1;ratioP1;P1;durP2;ratioP2;P2;SDS_P1;SDS_P2;PMS_P1;PMS_P2;Temp;Humidity;BMP_temperature;BMP_pressure;BME280_temperature;BME280_humidity;BME280_pressure;Samples;Min_cycle;Max_cycle;Signal;HPM_P1;HPM_P2
2021/05/17 00:00:59;;;;;;;7.68;3.65;;;12.20;90.60;;;11.20;83.58;99042.09;5009510;28;20923;-78
2021/05/17 00:03:39;;;;;;;11.05;4.20;;;12.20;90.80;;;11.19;83.77;99040.41;5008921;28;20499;-77
2021/05/17 00:06:15;;;;;;;6.72;3.95;;;12.20;90.70;;;11.21;83.69;99041.03;5009443;28;20034;-78
2021/05/17 00:08:54;;;;;;;8.00;3.50;;;12.20;90.80;;;11.21;83.88;99043.75;5012148;28;20037;-78
2021/05/17 00:11:32;;;;;;;8.38;3.85;;;12.20;90.80;;;11.22;83.68;99048.16;5013973;28;20053;-77
2021/05/17 00:14:11;;;;;;;8.02;3.55;;;12.20;90.80;;;11.21;83.61;99041.03;5012213;28;20052;-77
2021/05/17 00:16:49;;;;;;;7.65;3.92;;;12.20;90.70;;;11.19;83.07;99043.13;5024091;28;20572;-78
2021/05/17 00:19:24;;;;;;;7.43;4.03;;;12.20;90.70;;;11.22;83.34;99033.72;5025603;28;20100;-78
2021/05/17 00:22:00;;;;;;;6.57;3.35;;;12.20;90.60;;;11.21;83.06;99043.75;5023451;28;20038;-78
2021/05/17 00:24:43;;;;;;;5.90;3.47;;;12.20;90.60;;;11.22;82.93;99036.44;5031977;28;20072;-77
2021/05/17 00:27:20;;;;;;;9.63;3.75;;;12.20;90.50;;;11.23;83.33;99044.38;5031890;28;20048;-78
2021/05/17 00:29:56;;;;;;;9.68;3.80;;;12.20;90.70;;;11.23;83.58;99040.81;5014168;28;20533;-78
2021/05/17 00:32:34;;;;;;;7.35;3.67;;;12.20;90.90;;;11.21;83.74;99054.63;5031665;28;20045;-78
2021/05/17 00:35:11;;;;;;;6.72;3.70;;;12.20;90.90;;;11.26;83.62;99046.63;5031932;28;20049;-78
2021/05/17 00:37:51;;;;;;;6.07;3.33;;;12.20;91.00;;;11.27;83.96;99050.19;5013802;28;20054;-77
2021/05/17 00:40:35;;;;;;;7.23;3.27;;;12.20;91.10;;;11.27;84.03;99042.88;5031804;28;20060;-78
2021/05/17 00:43:16;;;;;;;6.35;3.55;;;12.20;91.30;;;11.31;83.84;99043.25;5031536;28;20132;-78
2021/05/17 00:45:55;;;;;;;6.03;3.22;;;12.30;91.30;;;11.30;83.86;99050.56;5031592;28;20449;-78
2021/05/17 00:48:32;;;;;;;8.20;3.42;;;12.30;91.30;;;11.32;84.20;99045.72;5031597;28;20057;-78
2021/05/17 00:51:08;;;;;;;8.93;4.15;;;12.30;91.40;;;11.33;84.17;99052.03;5031524;28;20060;-77
2021/05/17 00:53:45;;;;;;;6.03;3.15;;;12.30;91.50;;;11.31;84.26;99054.97;5013054;28;20057;-77
2021/05/17 00:56:19;;;;;;;6.45;3.17;;;12.30;91.50;;;11.32;84.20;99056.63;5013533;28;20053;-78
2021/05/17 00:59:00;;;;;;;8.48;3.10;;;12.30;91.60;;;11.32;83.90;99051.16;5013389;28;20045;-78
2021/05/17 01:01:35;;;;;;;6.75;3.25;;;12.30;91.30;;;11.34;83.54;99053.69;5031397;28;20060;-78
2021/05/17 01:04:14;;;;;;;8.13;3.28;;;12.30;91.10;;;11.34;83.31;99053.69;5013408;28;20038;-77
2021/05/17 01:07:01;;;;;;;5.50;2.80;;;12.30;91.00;;;11.35;83.08;99053.47;5031232;28;20044;-77
2021/05/17 01:09:40;;;;;;;7.63;2.92;;;12.30;90.90;;;11.38;82.96;99059.50;5013422;28;20053;-78
2021/05/17 01:12:26;;;;;;;7.35;3.13;;;12.30;90.80;;;11.35;83.00;99053.47;5030724;28;20073;-78
2021/05/17 01:15:05;;;;;;;5.30;2.50;;;12.30;90.80;;;11.36;83.22;99057.00;5012683;28;20045;-78
2021/05/17 01:17:43;;;;;;;9.50;3.28;;;12.30;90.80;;;11.37;83.23;99053.25;5012914;28;20046;-78
2021/05/17 01:20:27;;;;;;;5.82;3.10;;;12.30;90.80;;;11.35;83.44;99055.34;5031016;28;20056;-78
2021/05/17 01:26:07;;;;;;;8.43;3.07;;;12.30;91.00;;;11.34;83.75;99062.66;5012241;28;20519;-78
2021/05/17 01:28:44;;;;;;;6.75;2.92;;;12.30;91.10;;;11.32;83.57;99058.53;5030499;28;20068;-77
2021/05/17 01:31:23;;;;;;;6.45;2.63;;;12.30;91.10;;;11.33;83.39;99058.28;5012592;28;20057;-77
2021/05/17 01:34:01;;;;;;;6.95;3.28;;;12.30;90.90;;;11.36;83.75;99057.00;5012100;28;20045;-78
2021/05/17 01:36:39;;;;;;;5.88;3.33;;;12.30;91.20;;;11.37;83.67;99055.13;5012583;28;20095;-77
2021/05/17 01:39:21;;;;;;;7.35;2.78;;;12.30;91.20;;;11.37;83.69;99060.59;5012628;28;20072;-77
2021/05/17 01:42:01;;;;;;;5.55;3.10;;;12.30;91.10;;;11.38;83.51;99059.50;5012203;28;20049;-78
2021/05/17 01:44:40;;;;;;;7.40;3.17;;;12.30;91.10;;;11.37;83.69;99057.84;5030312;28;20152;-78
2021/05/17 01:47:24;;;;;;;6.80;2.92;;;12.30;91.10;;;11.40;83.88;99062.84;5028854;28;20116;-77
2021/05/17 01:50:01;;;;;;;5.35;2.80;;;12.30;91.20;;;11.34;83.70;99059.94;5030196;28;20437;-78
2021/05/17 01:52:44;;;;;;;6.95;3.05;;;12.30;91.30;;;11.35;83.88;99060.81;5012052;28;20087;-77
2021/05/17 01:55:25;;;;;;;10.75;2.88;;;12.30;91.30;;;11.37;83.86;99068.75;5009293;28;20077;-78
2021/05/17 01:58:21;;;;;;;6.97;2.88;;;12.30;91.30;;;11.34;84.13;99065.41;5012198;28;20046;-78
2021/05/17 02:01:02;;;;;;;9.25;3.13;;;12.30;91.50;;;11.33;83.76;99066.47;5011919;28;20103;-77
2021/05/17 02:03:46;;;;;;;7.75;2.90;;;12.30;91.40;;;11.35;84.00;99071.69;5011640;28;20061;-78
2021/05/17 02:06:25;;;;;;;7.70;3.15;;;12.30;91.40;;;11.34;83.80;99068.13;5028721;28;20048;-78
2021/05/17 02:09:03;;;;;;;4.70;2.80;;;12.30;91.50;;;11.34;84.29;99064.56;5029836;28;20092;-77
2021/05/17 02:11:37;;;;;;;12.43;3.20;;;12.30;91.70;;;11.35;84.17;99060.81;5028319;28;20399;-77
2021/05/17 02:14:27;;;;;;;6.72;2.88;;;12.30;91.60;;;11.37;84.55;99066.03;5011840;28;20132;-77
2021/05/17 02:17:06;;;;;;;7.00;2.88;;;12.30;91.60;;;11.38;84.15;99062.22;5011917;28;20418;-78
2021/05/17 02:19:42;;;;;;;6.20;2.70;;;12.40;91.80;;;11.40;83.99;99065.56;5028363;28;20059;-78
2021/05/17 02:22:18;;;;;;;7.13;2.88;;;12.40;91.60;;;11.38;84.38;99062.22;5027943;28;20420;-78
2021/05/17 02:25:05;;;;;;;6.30;2.75;;;12.40;91.80;;;11.36;84.75;99062.44;5011204;28;20046;-78
2021/05/17 02:27:50;;;;;;;8.68;2.58;;;12.30;91.90;;;11.35;84.49;99067.06;5069181;23;20552;-84
2021/05/17 02:30:32;;;;;;;6.88;2.72;;;12.40;91.90;;;11.35;84.42;99061.63;5045095;28;20056;-83
2021/05/17 02:33:09;;;;;;;5.37;2.70;;;12.40;92.00;;;11.35;84.82;99060.81;5047554;28;20488;-84
2021/05/17 02:35:50;;;;;;;5.00;2.35;;;12.40;91.90;;;11.34;84.85;99059.13;5047758;28;20103;-83
2021/05/17 02:38:29;;;;;;;6.20;2.70;;;12.40;92.00;;;11.34;84.91;99059.94;5047689;28;20120;-83
2021/05/17 02:41:08;;;;;;;3.75;2.35;;;12.40;91.90;;;11.34;84.65;99059.94;5047698;28;20056;-83
2021/05/17 02:43:44;;;;;;;6.40;2.60;;;12.40;92.00;;;11.33;84.96;99058.28;5048803;28;20116;-83
2021/05/17 02:46:25;;;;;;;5.03;2.45;;;12.40;92.10;;;11.35;85.07;99064.34;5049054;28;20033;-83
2021/05/17 02:49:01;;;;;;;4.88;2.65;;;12.40;92.20;;;11.37;84.78;99058.69;5047670;28;20520;-84
2021/05/17 02:51:40;;;;;;;4.90;2.75;;;12.40;92.00;;;11.35;84.65;99064.34;5047525;28;20063;-83
2021/05/17 02:54:40;;;;;;;4.88;2.40;;;12.40;92.10;;;11.34;85.00;99065.41;5047600;28;20106;-83
2021/05/17 02:57:21;;;;;;;7.43;2.55;;;12.40;92.20;;;11.34;85.21;99062.66;5047520;28;20041;-83
2021/05/17 03:00:16;;;;;;;4.80;2.30;;;12.40;92.30;;;11.33;84.94;99063.75;5047497;28;20527;-84
2021/05/17 03:03:16;;;;;;;6.15;2.65;;;12.40;92.00;;;11.36;84.98;99062.44;5048526;28;20033;-83
2021/05/17 03:06:10;;;;;;;4.60;2.55;;;12.40;92.20;;;11.37;84.83;99063.31;5046134;28;20056;-83
2021/05/17 03:08:58;;;;;;;4.13;1.95;;;12.40;92.30;;;11.36;84.85;99065.19;5047311;28;20056;-84
2021/05/17 03:11:38;;;;;;;4.88;2.20;;;12.40;92.10;;;11.37;84.52;99068.75;5047222;28;20072;-83
2021/05/17 03:14:20;;;;;;;5.15;2.30;;;12.40;91.90;;;11.40;84.57;99068.28;5046980;28;20049;-83
2021/05/17 03:17:04;;;;;;;5.38;2.25;;;12.40;92.00;;;11.39;84.76;99075.63;5047104;28;20685;-84
2021/05/17 03:19:42;;;;;;;5.93;2.25;;;12.40;92.10;;;11.38;84.80;99076.69;5047054;28;20068;-84
2021/05/17 03:22:26;;;;;;;7.28;2.78;;;12.40;92.10;;;11.35;84.60;99077.97;5048333;28;20071;-83
2021/05/17 03:25:06;;;;;;;7.03;2.17;;;12.40;92.10;;;11.34;84.77;99073.56;5048722;28;20041;-84
2021/05/17 03:27:45;;;;;;;4.15;2.30;;;12.40;92.20;;;11.37;84.95;99080.47;5048408;28;20045;-83
2021/05/17 03:30:24;;;;;;;6.45;2.40;;;12.40;92.30;;;11.35;85.00;99077.16;5047749;28;20037;-84
2021/05/17 03:33:05;;;;;;;8.40;3.08;;;12.40;92.40;;;11.35;85.04;99088.03;5047720;28;20057;-84
2021/05/17 03:35:46;;;;;;;5.38;2.45;;;12.40;92.30;;;11.37;85.47;99079.66;5048613;28;20078;-84
2021/05/17 03:38:18;;;;;;;5.30;2.60;;;12.40;92.40;;;11.36;85.23;99081.53;5048557;28;20056;-83
2021/05/17 03:40:53;;;;;;;8.48;2.83;;;12.40;92.50;;;11.36;85.00;99086.97;5047367;28;20052;-84
2021/05/17 03:43:31;;;;;;;7.00;2.40;;;12.40;92.50;;;11.33;85.03;99080.09;5050726;28;20271;-83
2021/05/17 03:46:04;;;;;;;6.93;2.53;;;12.40;92.40;;;11.34;85.17;99083.63;5052398;28;20041;-84
2021/05/17 03:48:50;;;;;;;6.10;2.35;;;12.40;92.40;;;11.32;85.25;99083.84;5052300;28;20049;-84
2021/05/17 03:51:27;;;;;;;7.32;2.47;;;12.40;92.40;;;11.33;85.62;99080.09;5051695;28;20041;-83
2021/05/17 03:54:05;;;;;;;10.45;2.47;;;12.40;92.60;;;11.32;85.46;99083.84;5052123;28;20765;-84
2021/05/17 03:56:41;;;;;;;6.28;2.40;;;12.40;92.60;;;11.33;85.52;99080.09;5052458;28;20064;-80
2021/05/17 03:59:21;;;;;;;6.97;2.58;;;12.30;92.70;;;11.30;85.73;99085.16;5052534;28;20041;-77
2021/05/17 04:01:56;;;;;;;4.82;2.78;;;12.40;92.80;;;11.31;85.68;99089.56;5039519;28;20551;-78
2021/05/17 04:04:38;;;;;;;5.72;2.17;;;12.30;92.70;;;11.31;85.75;99087.66;5032457;28;20037;-78
2021/05/17 04:07:26;;;;;;;4.47;2.20;;;12.40;92.80;;;11.34;85.62;99092.63;5031039;28;20056;-78
2021/05/17 04:15:40;;;;;;;5.60;2.10;;;12.40;92.90;;;11.40;85.62;99090.91;5032343;28;20076;-78
2021/05/17 04:18:17;;;;;;;5.82;2.45;;;12.40;93.00;;;11.43;85.88;99100.53;5032077;28;20768;-78
2021/05/17 04:20:56;;;;;;;4.68;1.90;;;12.40;93.00;;;11.43;85.77;99097.81;5032063;28;20124;-79
2021/05/17 04:23:32;;;;;;;12.45;2.28;;;12.40;93.10;;;11.42;85.99;99096.13;5032023;28;20037;-79
2021/05/17 04:26:07;;;;;;;5.63;1.98;;;12.40;93.00;;;11.43;85.58;99095.09;5032022;28;20163;-79
2021/05/17 04:28:43;;;;;;;5.07;2.20;;;12.40;93.00;;;11.46;85.97;99100.06;5031887;28;20096;-78
2021/05/17 04:31:18;;;;;;;4.32;1.98;;;12.40;93.00;;;11.48;85.98;99098.81;5031896;28;20049;-78
2021/05/17 04:33:53;;;;;;;9.07;1.98;;;12.50;93.30;;;11.48;85.83;99097.94;5031519;28;20041;-78
2021/05/17 04:36:38;;;;;;;6.93;2.40;;;12.50;93.20;;;11.47;86.06;99094.41;5030373;28;20060;-78
2021/05/17 04:39:19;;;;;;;5.18;2.20;;;12.50;93.30;;;11.49;85.94;99100.44;5031883;28;20069;-78
2021/05/17 04:41:57;;;;;;;7.13;2.33;;;12.50;93.40;;;11.52;85.98;99104.63;5031428;28;20416;-78
2021/05/17 04:44:32;;;;;;;4.90;2.20;;;12.50;93.40;;;11.52;86.03;99101.91;5031801;28;20091;-78
2021/05/17 04:47:05;;;;;;;8.77;2.28;;;12.50;93.40;;;11.52;86.26;99110.09;5031549;28;20041;-78
2021/05/17 04:49:43;;;;;;;6.50;2.17;;;12.50;93.30;;;11.53;86.35;99111.72;5030260;28;20099;-78
2021/05/17 04:52:22;;;;;;;4.43;2.30;;;12.60;93.30;;;11.56;86.10;99111.28;5030654;28;20048;-78
2021/05/17 04:54:57;;;;;;;6.07;2.50;;;12.60;93.30;;;11.56;86.47;99111.28;5031217;28;20540;-78
2021/05/17 04:57:37;;;;;;;6.38;2.15;;;12.60;93.50;;;11.62;86.23;99113.09;5031185;28;20046;-78
2021/05/17 05:00:19;;;;;;;5.35;2.17;;;12.60;93.30;;;11.62;86.29;99104.94;5031136;28;20045;-78
2021/05/17 05:02:54;;;;;;;4.80;2.25;;;12.70;93.70;;;11.65;86.84;99114.53;5029385;28;20506;-78
2021/05/17 05:05:32;;;;;;;6.82;2.22;;;12.70;93.80;;;11.67;87.08;99113.28;5030447;28;20052;-78
2021/05/17 05:08:12;;;;;;;7.55;2.58;;;12.70;93.90;;;11.70;86.75;99110.06;5030578;28;20064;-79
2021/05/17 05:10:50;;;;;;;4.53;2.20;;;12.70;93.90;;;11.72;86.85;99110.69;5029114;28;20041;-79
2021/05/17 05:13:26;;;;;;;6.75;2.63;;;12.70;93.90;;;11.72;86.57;99116.13;5030593;28;20419;-82
2021/05/17 05:16:06;;;;;;;8.00;2.40;;;12.80;93.80;;;11.74;86.40;99122.19;5030843;28;20048;-82
2021/05/17 05:18:44;;;;;;;3.67;2.00;;;12.80;93.80;;;11.77;86.43;99111.91;5012383;28;20088;-80
2021/05/17 05:21:22;;;;;;;8.70;2.70;;;12.80;93.60;;;11.78;86.85;99121.75;5030728;28;20049;-81
2021/05/17 05:23:58;;;;;;;6.43;2.80;;;12.80;93.60;;;11.79;86.92;99115.25;5030425;28;20061;-80
2021/05/17 05:26:53;;;;;;;5.97;2.60;;;12.90;93.80;;;11.84;87.30;99123.56;5030569;28;20537;-81
2021/05/17 05:29:36;;;;;;;7.72;2.40;;;12.90;93.80;;;11.88;87.15;99119.31;5030563;28;20494;-78
2021/05/17 05:32:24;;;;;;;8.35;2.45;;;13.00;93.80;;;11.92;87.42;99115.13;5030283;28;20045;-80
2021/05/17 05:35:00;;;;;;;8.55;2.80;;;13.00;93.80;;;11.97;87.69;99123.44;5030400;28;20041;-79
2021/05/17 05:37:38;;;;;;;4.43;2.15;;;13.00;93.80;;;12.01;87.35;99116.44;5033612;28;20041;-79
2021/05/17 05:40:18;;;;;;;6.22;2.10;;;13.10;94.00;;;12.06;87.63;99107.59;5030028;28;20056;-79
2021/05/17 05:42:54;;;;;;;6.22;2.55;;;13.10;94.00;;;12.12;87.47;99112.97;5029907;28;20045;-79
2021/05/17 05:45:33;;;;;;;5.65;2.30;;;13.20;93.90;;;12.17;87.11;99112.28;5030008;28;20433;-79
2021/05/17 05:48:12;;;;;;;6.55;2.17;;;13.20;93.50;;;12.17;87.21;99111.47;5030158;28;20111;-80
2021/05/17 05:50:49;;;;;;;5.72;1.95;;;13.20;93.40;;;12.16;86.49;99115.25;5030061;28;20045;-79
2021/05/17 05:53:28;;;;;;;4.72;2.20;;;13.30;93.30;;;12.18;86.91;99115.84;5029589;28;20052;-79
2021/05/17 05:56:07;;;;;;;5.78;2.15;;;13.30;93.20;;;12.19;86.73;99110.16;5030004;28;20056;-79
2021/05/17 05:58:46;;;;;;;6.60;2.65;;;13.30;93.30;;;12.20;86.17;99119.16;5029916;28;20060;-79
2021/05/17 06:01:22;;;;;;;4.43;2.10;;;13.30;93.10;;;12.19;86.53;99126.53;5029797;28;20445;-80
2021/05/17 06:04:00;;;;;;;8.05;2.20;;;13.30;93.10;;;12.17;86.73;99127.84;5028668;28;20555;-80
2021/05/17 06:06:38;;;;;;;5.70;2.05;;;13.30;93.20;;;12.15;86.45;99132.66;5029643;28;20490;-79
2021/05/17 06:09:19;;;;;;;7.00;2.58;;;13.30;93.00;;;12.15;86.90;99127.19;5029631;28;20056;-80
2021/05/17 06:11:58;;;;;;;6.75;2.22;;;13.20;93.10;;;12.13;86.41;99139.19;5029336;28;20049;-80
2021/05/17 06:14:38;;;;;;;5.65;2.50;;;13.20;93.10;;;12.13;86.89;99138.34;5029564;28;20037;-80
2021/05/17 06:17:17;;;;;;;5.43;2.47;;;13.20;93.10;;;12.12;86.58;99142.97;5029274;28;20127;-80
2021/05/17 06:19:53;;;;;;;9.65;2.47;;;13.30;93.00;;;12.13;86.66;99141.91;5029304;28;20077;-78
2021/05/17 06:22:32;;;;;;;8.57;2.53;;;13.30;93.10;;;12.17;87.01;99138.75;5029268;28;20091;-80
2021/05/17 06:25:09;;;;;;;7.55;2.97;;;13.30;93.20;;;12.18;86.89;99140.38;5029323;28;20073;-79
2021/05/17 06:27:51;;;;;;;7.63;2.85;;;13.30;93.10;;;12.21;87.44;99145.41;5030149;28;20053;-79
2021/05/17 06:30:32;;;;;;;6.65;2.50;;;13.40;93.40;;;12.23;86.87;99137.81;5042816;28;20033;-79
2021/05/17 06:33:11;;;;;;;6.43;2.83;;;13.30;93.40;;;12.27;88.32;99136.28;5048976;28;20077;-79
2021/05/17 06:35:52;;;;;;;;;;;13.40;93.90;;;12.28;88.33;99138.78;5049732;28;20110;-79
2021/05/17 06:38:33;;;;;;;6.57;2.70;;;13.50;93.80;;;12.30;88.39;99138.56;5047732;28;20030;-79
2021/05/17 06:41:11;;;;;;;5.13;2.90;;;13.60;93.70;;;12.35;87.75;99146.06;5032106;28;20046;-79
2021/05/17 06:43:47;;;;;;;8.65;3.03;;;13.50;93.30;;;12.35;88.16;99135.97;5043886;28;20041;-80
2021/05/17 06:46:26;;;;;;;6.80;2.85;;;13.60;93.40;;;12.40;88.14;99143.47;5035081;28;20133;-80
2021/05/17 06:49:04;;;;;;;10.85;3.45;;;13.60;93.50;;;12.40;87.62;99149.75;5029068;28;20064;-80
2021/05/17 06:51:42;;;;;;;6.65;3.15;;;13.70;93.50;;;12.42;87.17;99150.34;5028956;28;20111;-79
2021/05/17 06:54:25;;;;;;;5.97;3.00;;;13.60;93.00;;;12.42;88.04;99152.25;5028995;28;20083;-80
2021/05/17 06:57:07;;;;;;;7.78;2.95;;;13.70;93.40;;;12.48;87.86;99157.63;5033476;28;20083;-79
2021/05/17 06:59:48;;;;;;;7.95;3.00;;;13.70;93.20;;;12.50;87.80;99147.28;5033268;28;20098;-79
2021/05/17 07:02:28;;;;;;;11.27;3.10;;;13.80;93.30;;;12.52;87.53;99147.91;5031685;28;20056;-79
2021/05/17 07:05:07;;;;;;;7.60;2.85;;;13.80;93.00;;;12.54;87.27;99157.75;5027383;28;20417;-80
2021/05/17 07:07:53;;;;;;;7.25;3.25;;;13.80;92.90;;;12.56;87.34;99159.19;5035817;28;20040;-80
2021/05/17 07:13:22;;;;;;;9.48;2.75;;;13.80;92.70;;;12.61;87.03;99164.78;5029851;28;20049;-80
2021/05/17 07:16:09;;;;;;;6.18;2.80;;;13.90;92.60;;;12.63;88.12;99165.41;5028216;28;20050;-80
2021/05/17 07:18:47;;;;;;;9.68;3.30;;;13.90;93.00;;;12.66;87.47;99164.94;5028728;28;20068;-79
2021/05/17 07:24:20;;;;;;;7.57;3.25;;;13.90;93.00;;;12.71;87.74;99172.41;5029505;28;20051;-80
2021/05/17 07:26:59;;;;;;;8.38;3.20;;;13.90;93.00;;;12.73;87.75;99169.47;5027361;28;20107;-80
2021/05/17 07:29:38;;;;;;;11.70;3.20;;;13.90;92.70;;;12.74;87.32;99161.06;5028356;28;20048;-80
2021/05/17 07:32:15;;;;;;;8.50;3.10;;;14.00;92.50;;;12.76;87.23;99163.56;5029227;28;20049;-80
2021/05/17 07:34:53;;;;;;;6.18;2.90;;;14.00;92.50;;;12.79;87.53;99163.06;5028306;28;20680;-81
2021/05/17 07:37:31;;;;;;;9.15;2.92;;;14.10;92.50;;;12.80;86.79;99162.84;5028156;28;20777;-80
2021/05/17 07:40:16;;;;;;;5.72;2.83;;;14.10;92.30;;;12.80;86.76;99165.56;5028485;28;20053;-80
2021/05/17 07:42:51;;;;;;;6.03;2.55;;;14.10;91.90;;;12.81;86.29;99167.25;5039096;28;20504;-80
2021/05/17 07:45:29;;;;;;;5.57;2.65;;;14.10;91.70;;;12.83;86.80;99167.84;5045426;28;20041;-79
2021/05/17 07:48:13;;;;;;;8.73;3.47;;;14.10;91.70;;;12.82;86.86;99168.91;5028414;28;20047;-80
2021/05/17 07:50:49;;;;;;;8.07;2.40;;;14.10;92.00;;;12.82;86.55;99168.91;5028393;28;20048;-80
2021/05/17 07:53:27;;;;;;;7.05;2.63;;;14.10;92.00;;;12.81;86.02;99167.25;5027981;28;20045;-80
2021/05/17 07:55:59;;;;;;;8.45;2.60;;;14.10;91.80;;;12.83;85.80;99169.72;5028460;28;20356;-81
2021/05/17 07:58:34;;;;;;;6.82;2.50;;;14.10;91.40;;;12.82;85.54;99166.16;5028224;28;20049;-80
2021/05/17 08:01:13;;;;;;;9.55;2.50;;;14.00;91.50;;;12.83;86.14;99169.72;5033928;28;20137;-80
2021/05/17 08:03:50;;;;;;;9.00;2.70;;;14.00;91.70;;;12.84;86.11;99163.22;5027544;28;20041;-80
2021/05/17 08:06:30;;;;;;;7.88;2.60;;;14.00;91.70;;;12.80;85.36;99170.22;5027848;28;20058;-80
2021/05/17 08:09:08;;;;;;;7.68;2.67;;;14.10;91.10;;;12.83;86.80;99167.84;5028148;28;20049;-80
2021/05/17 08:11:46;;;;;;;6.57;2.08;;;14.10;91.80;;;12.83;86.38;99170.59;5027752;28;20057;-80
2021/05/17 08:14:21;;;;;;;9.10;2.45;;;14.10;91.30;;;12.86;86.10;99166.53;5027948;28;20053;-80
2021/05/17 08:16:59;;;;;;;9.07;2.22;;;14.20;91.20;;;12.89;85.70;99175.09;5027322;28;20092;-84
2021/05/17 08:19:40;;;;;;;6.97;1.92;;;14.20;91.10;;;12.88;85.00;99173.41;5027813;28;20061;-80
2021/05/17 08:22:18;;;;;;;11.65;2.00;;;14.20;90.80;;;12.95;85.21;99173.34;5027571;28;20497;-80
2021/05/17 08:24:59;;;;;;;10.48;2.92;;;14.30;90.70;;;12.97;85.91;99173.13;5028127;28;20045;-80
2021/05/17 08:27:39;;;;;;;9.45;1.90;;;14.30;90.80;;;13.08;87.78;99164.13;5049291;22;20083;-75
2021/05/17 08:30:20;;;;;;;8.07;1.67;;;14.40;92.20;;;13.19;87.53;99167.91;5032199;28;20493;-75
2021/05/17 08:32:58;;;;;;;7.93;1.90;;;14.50;92.30;;;13.23;86.46;99161.78;5051002;28;20049;-75
2021/05/17 08:35:37;;;;;;;5.13;1.55;;;14.60;91.50;;;13.24;85.44;99165.31;5051485;28;20037;-75
2021/05/17 08:38:15;;;;;;;7.15;1.48;;;14.60;90.10;;;13.24;84.63;99166.16;5026336;28;20053;-75
2021/05/17 08:40:52;;;;;;;6.43;1.70;;;14.70;89.60;;;13.29;85.46;99160.00;5031360;28;20052;-75
2021/05/17 08:43:30;;;;;;;7.20;1.77;;;14.70;90.00;;;13.34;85.42;99154.66;5031078;28;20045;-75
2021/05/17 08:46:09;;;;;;;6.13;1.77;;;14.80;89.80;;;13.47;87.44;99167.28;5031375;28;20053;-78
2021/05/17 08:48:49;;;;;;;5.13;1.50;;;14.90;91.90;;;13.44;83.17;99159.53;5031351;28;20048;-78
2021/05/17 08:51:25;;;;;;;4.22;1.20;;;14.90;87.80;;;13.44;82.40;99159.53;5031183;28;20148;-78
2021/05/17 08:54:06;;;;;;;3.80;1.30;;;14.90;87.60;;;13.39;81.05;99157.53;5031020;28;20042;-79
2021/05/17 08:56:46;;;;;;;5.35;0.95;;;14.90;86.20;;;13.46;81.70;99160.97;5031372;28;20037;-79
2021/05/17 08:59:22;;;;;;;6.60;1.30;;;14.90;86.20;;;13.52;82.23;99161.09;5014125;28;20068;-79
2021/05/17 09:02:00;;;;;;;6.05;1.13;;;15.00;86.80;;;13.60;83.59;99156.09;5029620;28;20053;-78
2021/05/17 09:04:38;;;;;;;7.55;1.30;;;15.10;87.40;;;13.72;81.37;99155.28;5030991;28;20088;-75
2021/05/17 09:07:17;;;;;;;4.57;1.10;;;15.20;86.20;;;13.76;82.12;99156.44;5031132;28;20454;-76
2021/05/17 09:09:52;;;;;;;4.95;1.05;;;15.20;86.00;;;13.82;81.51;99161.81;5030545;28;20041;-76
2021/05/17 09:12:28;;;;;;;7.43;1.17;;;15.30;86.60;;;13.78;78.16;99162.50;5026090;28;20045;-78
2021/05/17 09:15:08;;;;;;;8.77;1.23;;;15.30;84.10;;;13.78;79.07;99165.25;5030577;28;20409;-78
2021/05/17 09:18:05;;;;;;;5.10;1.20;;;15.30;84.50;;;13.78;80.12;99181.66;5030877;28;20052;-79
2021/05/17 09:20:44;;;;;;;4.75;1.13;;;15.30;85.20;;;13.72;81.05;99199.03;5010963;28;20042;-78
2021/05/17 09:23:31;;;;;;;6.45;1.10;;;15.20;85.80;;;13.67;82.09;99197.00;5010761;28;20410;-75
2021/05/17 09:26:14;;;;;;;5.13;1.35;;;15.20;86.50;;;13.62;83.02;99194.97;5010892;28;20529;-76
2021/05/17 09:28:57;;;;;;;4.22;1.02;;;15.10;87.20;;;13.63;83.69;99193.91;5002908;28;20045;-75
2021/05/17 09:31:35;;;;;;;4.78;1.15;;;15.10;87.80;;;13.61;83.84;99193.31;5030649;28;20146;-76
2021/05/17 09:34:11;;;;;;;6.13;1.23;;;15.10;88.00;;;13.61;84.62;99193.31;5030617;28;20044;-77
2021/05/17 09:36:49;;;;;;;8.18;1.42;;;15.10;88.50;;;13.63;85.15;99201.25;5030573;28;20042;-78
2021/05/17 09:39:32;;;;;;;7.18;1.23;;;15.10;88.90;;;13.61;84.06;99198.78;5030314;28;20067;-77
2021/05/17 09:42:12;;;;;;;4.15;1.20;;;15.10;88.60;;;13.61;84.25;99198.78;5030072;28;20049;-77
2021/05/17 09:44:53;;;;;;;4.25;1.15;;;15.00;88.20;;;13.65;84.60;99191.78;5030436;28;20045;-78
2021/05/17 09:47:31;;;;;;;3.47;1.20;;;15.10;88.40;;;13.71;84.43;99192.72;5030060;28;20045;-78
2021/05/17 09:50:16;;;;;;;4.10;1.40;;;15.10;88.30;;;13.68;82.91;99188.53;5030000;28;20042;-78
2021/05/17 09:52:51;;;;;;;3.97;1.23;;;15.20;87.60;;;13.73;84.00;99179.66;5024720;28;20053;-78
2021/05/17 09:55:30;;;;;;;6.07;1.48;;;15.20;88.00;;;13.83;86.29;99168.09;5030241;28;20459;-77
2021/05/17 09:58:08;;;;;;;5.30;1.52;;;15.30;90.00;;;13.88;86.12;99165.50;5029895;28;20144;-78
2021/05/17 10:00:46;;;;;;;8.23;1.55;;;15.40;89.50;;;13.94;85.27;99159.06;5022429;28;20399;-77
2021/05/17 10:03:26;;;;;;;8.38;2.13;;;15.40;89.50;;;13.97;85.58;99158.56;5009668;28;20046;-77
2021/05/17 10:06:01;;;;;;;5.90;1.30;;;15.50;89.00;;;14.03;85.62;99162.22;5010288;28;20092;-78
2021/05/17 10:08:40;;;;;;;5.72;1.50;;;15.60;88.40;;;14.01;84.12;99159.78;5015348;28;20540;-77
2021/05/17 10:11:17;;;;;;;9.38;1.55;;;15.50;87.80;;;13.98;82.47;99171.19;5026153;28;20678;-78
2021/05/17 10:13:56;;;;;;;4.95;1.50;;;15.60;86.30;;;14.01;83.76;99157.03;5029079;28;20048;-77
2021/05/17 10:16:35;;;;;;;4.20;1.42;;;15.60;87.20;;;14.05;81.98;99149.16;5029754;28;20049;-77
2021/05/17 10:19:13;;;;;;;8.52;1.35;;;15.60;86.00;;;14.09;81.92;99153.09;5029857;28;20696;-77
2021/05/17 10:21:51;;;;;;;5.88;1.40;;;15.70;85.70;;;14.14;81.10;99152.34;5028592;28;20045;-78
2021/05/17 10:24:29;;;;;;;4.95;1.50;;;15.70;85.20;;;14.11;78.00;99152.81;5029480;28;20103;-77
2021/05/17 10:27:03;;;;;;;4.35;1.20;;;15.70;82.80;;;14.07;78.93;99150.59;5029163;28;20052;-78
2021/05/17 10:29:44;;;;;;;3.30;1.15;;;15.70;83.70;;;14.11;79.26;99141.88;5013056;28;20097;-77
2021/05/17 10:32:22;;;;;;;4.18;1.30;;;15.70;83.70;;;14.12;77.03;99143.56;5018386;28;20045;-77
2021/05/17 10:35:20;;;;;;;4.47;1.45;;;15.70;82.60;;;14.22;80.08;99138.28;5029453;28;20052;-81
2021/05/17 10:38:22;;;;;;;7.93;1.75;;;15.80;84.00;;;14.29;77.21;99141.72;5029266;28;20884;-80
2021/05/17 10:41:32;;;;;;;5.35;1.30;;;15.80;81.90;;;14.35;78.45;99129.78;5029309;28;20057;-77
2021/05/17 10:44:31;;;;;;;4.90;1.35;;;15.90;83.00;;;14.38;77.74;99132.06;5009068;28;20045;-81
2021/05/17 10:47:08;;;;;;;2.88;1.10;;;15.90;82.50;;;14.37;75.85;99118.59;5009456;28;20140;-78
2021/05/17 10:49:47;;;;;;;3.83;1.17;;;15.90;80.40;;;14.37;76.50;99130.38;5008944;28;20038;-77
2021/05/17 10:52:30;;;;;;;5.85;1.25;;;15.90;80.60;;;14.33;73.59;99133.84;5014281;28;20054;-77
2021/05/17 10:55:18;;;;;;;6.35;1.88;;;15.90;78.90;;;14.31;75.38;99166.94;5009188;28;20045;-77
2021/05/17 11:01:26;;;;;;;5.57;0.75;;;15.80;80.00;;;14.02;77.53;99201.63;5014008;28;20049;-78
2021/05/17 11:04:44;;;;;;;3.13;0.60;;;15.60;82.20;;;13.88;79.17;99192.84;5027235;28;20573;-78
2021/05/17 11:07:28;;;;;;;2.35;0.70;;;15.50;83.40;;;13.82;79.94;99199.25;4930500;29;20197;-78
2021/05/17 11:10:20;;;;;;;1.60;0.60;;;15.30;84.30;;;13.83;81.38;99184.50;5021444;28;20054;-78
2021/05/17 11:13:08;;;;;;;4.45;0.95;;;15.30;85.50;;;13.83;82.96;99189.97;5021501;28;20037;-78
2021/05/17 11:16:11;;;;;;;6.95;1.33;;;15.30;86.70;;;13.86;84.03;99189.53;5017167;28;20061;-78
2021/05/17 11:18:57;;;;;;;2.47;0.82;;;15.30;87.70;;;13.87;84.32;99182.97;5018773;28;20045;-78
2021/05/17 11:21:36;;;;;;;3.45;1.00;;;15.30;87.80;;;13.89;84.66;99186.28;5025644;28;20410;-78
2021/05/17 11:24:17;;;;;;;3.88;1.35;;;15.30;88.20;;;13.85;84.04;99185.94;5022456;28;20669;-77
2021/05/17 11:27:06;;;;;;;4.50;1.27;;;15.30;87.90;;;13.81;84.31;99186.66;5017574;28;20069;-78
2021/05/17 11:29:44;;;;;;;4.30;1.27;;;15.30;88.20;;;13.78;84.36;99187.13;5016288;28;20651;-78
2021/05/17 11:32:34;;;;;;;4.45;1.30;;;15.20;88.20;;;13.71;84.04;99186.41;5024800;28;20098;-78